Home > Products > Valid Products > TAF

000
FTUS43 KLOT 311100
TAFGYY
TAF
KGYY 311137Z 3112/0112 34025G34KT 6SM -SHRASN SCT025 OVC035
      TEMPO 3113/3115 1 1/2SM -SHSN BKN012 OVC020
     FM311600 36030G42KT 4SM RASN SCT009 BKN015 OVC025
      TEMPO 3118/3122 1SM TSRASN OVC009CB
     FM312200 36030G40KT 2SM -SHRASN BKN010 OVC020
     FM010200 36025G35KT 4SM RASN BKN015 OVC025
     FM010600 02020G30KT P6SM VCSH BKN020 OVC030=



000
FTUS43 KLOT 311100
TAFMDW
TAF
KMDW 311137Z 3112/0112 34022G32KT 6SM -SHSN BKN025 OVC035
      TEMPO 3112/3114 1 1/2SM -SHSN BKN012 OVC020
     FM311500 36026G37KT P6SM BKN035
     FM010000 36020G30KT P6SM VCSH BKN035
     FM010300 35015G24KT 5SM -SHSN BKN020 OVC030
     FM010800 35012KT P6SM BKN020=



000
FTUS43 KLOT 311100
TAFDPA
TAF
KDPA 311137Z 3112/0112 34022G32KT 6SM -SHSN BKN025 OVC035
      TEMPO 3112/3114 1SM -SHSN BKN012 OVC020
     FM311500 36026G37KT P6SM BKN035
     FM312300 36020G30KT P6SM FEW035
     FM010200 35014G20KT P6SM SCT035=



000
FTUS43 KLOT 311100
TAFORD
TAF
KORD 311137Z 3112/0118 34022G32KT 6SM -SHSN BKN025 OVC035
      TEMPO 3112/3114 1 1/2SM -SHSN BKN012 OVC020
     FM311500 36026G37KT P6SM BKN035
     FM312100 36026G39KT P6SM SCT035
     FM010000 36020G30KT P6SM BKN035
     FM010300 35015G24KT P6SM VCSH BKN035
     FM010800 35012KT P6SM BKN020
     FM011500 02010KT P6SM SCT020=



000
FTUS43 KLOT 311100
TAFRFD
TAF
KRFD 311137Z 3112/0112 33020G27KT P6SM -SHSN BKN025 OVC035
      TEMPO 3112/3113 1 1/2SM -SHSN BKN012 OVC020
     FM311300 36025G36KT P6SM BKN035
     FM312200 35020G28KT P6SM FEW040
     FM010100 35015KT P6SM FEW040=



000
FTUS43 KLOT 311100 AAC
TAFORD
TAF AMD
KORD 311110Z 3111/0112 34022G32KT 6SM -SHSN BKN020 OVC035
      TEMPO 3112/3114 1 1/2SM -SHSN BKN012 OVC020
     FM311500 36026G37KT P6SM BKN035
     FM312100 36026G39KT P6SM SCT035
     FM010000 36020G30KT P6SM BKN035
     FM010300 35015G24KT P6SM VCSH BKN035
     FM010800 35012KT P6SM BKN020=



000
FTUS43 KLOT 311100 AAC
TAFMDW
TAF AMD
KMDW 311110Z 3111/0106 34022G32KT 6SM -SHSN BKN020 OVC035
      TEMPO 3112/3114 1 1/2SM -SHSN BKN012 OVC020
     FM311500 36026G37KT P6SM BKN035
     FM010000 36020G30KT P6SM VCSH BKN035
     FM010300 35015G24KT 5SM -SHSN BKN020 OVC030=



000
FTUS43 KLOT 311000 AAB
TAFGYY
TAF AMD
KGYY 311052Z 3111/0106 32016G28KT P6SM -SHRA SCT025 OVC035
     FM311200 34025G34KT 6SM -SHRASN BKN015 OVC030
      TEMPO 3113/3115 1SM -SHSN
     FM311600 36030G42KT 4SM RASN SCT009 BKN015 OVC025
      TEMPO 3118/3122 1SM TSRASN OVC009CB
     FM312200 36030G40KT 2SM -SHRASN BKN010 OVC020
     FM010200 36025G35KT 4SM RASN BKN015 OVC025=



000
FTUS43 KLOT 311000 AAB
TAFGYY
TAF AMD
KGYY 311052Z 3111/0106 32016G28KT P6SM -SHRA SCT025 OVC035
     FM311200 34025G34KT 6SM -SHRASN BKN015 OVC030
      TEMPO 3113/3115 1SM -SHSN
     FM311600 36030G42KT 4SM RASN SCT009 BKN015 OVC025
      TEMPO 3118/3122 1SM TSRASN OVC009CB
     FM312200 36030G40KT 2SM -SHRASN BKN010 OVC020
     FM010200 36025G35KT 4SM RASN BKN015 OVC025=



000
FTUS43 KLOT 311000 AAB
TAFMDW
TAF AMD
KMDW 311010Z 3110/0106 33018G27KT P6SM -SHRA SCT025 OVC035
     FM311200 34023G32KT 6SM -SHSN BKN020 OVC035
      TEMPO 3112/3114 1 1/2SM -SHSN SCT010 OVC020
     FM311500 36026G37KT P6SM BKN035
     FM010000 36020G30KT P6SM VCSH BKN035
     FM010300 34015G24KT 5SM -SHSN SCT020 BKN030=



000
FTUS43 KLOT 311000 AAB
TAFDPA
TAF AMD
KDPA 311010Z 3110/0106 33018G27KT P6SM -SHRA SCT025 OVC035
     FM311200 34023G32KT 6SM -SHSN BKN020 OVC035
      TEMPO 3112/3114 1SM -SHSN SCT010 OVC020
     FM311500 36026G37KT P6SM BKN035
     FM312300 36020G30KT P6SM FEW035
     FM010200 35015G24KT P6SM SCT035=



000
FTUS43 KLOT 311000 AAB
TAFORD
TAF AMD
KORD 311010Z 3110/0112 33018G27KT P6SM -SHRA SCT025 OVC035
     FM311200 34023G32KT 6SM -SHSN BKN020 OVC035
      TEMPO 3112/3114 1 1/2SM -SHSN SCT010 OVC020
     FM311500 36026G37KT P6SM BKN035
     FM312100 36026G39KT P6SM SCT035
     FM010000 36020G30KT P6SM BKN035
     FM010300 35015G24KT P6SM VCSH BKN035
     FM010800 35012KT P6SM BKN030=



000
FTUS43 KLOT 311000 AAB
TAFRFD
TAF AMD
KRFD 311010Z 3110/0106 34018G27KT P6SM VCSH SCT025 OVC035
     FM311100 33016G26KT P6SM -SHSN BKN025 OVC035
      TEMPO 3111/3113 1 1/2SM -SHSN SCT010 OVC020
     FM311300 36025G36KT P6SM BKN035
     FM312200 35020G28KT P6SM FEW040
     FM010100 35015KT P6SM FEW040=



000
FTUS43 KLOT 311000 AAB
TAFDPA
TAF AMD
KDPA 311010Z 3110/0106 33018G27KT P6SM -SHRA SCT025 OVC035
     FM311200 34023G32KT 6SM -SHSN BKN020 OVC035
      TEMPO 3112/3114 1SM -SHSN SCT010 OVC020
     FM311500 36026G37KT P6SM BKN035
     FM312300 36020G30KT P6SM FEW035
     FM010200 35015G24KT P6SM SCT035=



000
FTUS43 KLOT 311000 AAB
TAFMDW
TAF AMD
KMDW 311010Z 3110/0106 33018G27KT P6SM -SHRA SCT025 OVC035
     FM311200 34023G32KT 6SM -SHSN BKN020 OVC035
      TEMPO 3112/3114 1 1/2SM -SHSN SCT010 OVC020
     FM311500 36026G37KT P6SM BKN035
     FM010000 36020G30KT P6SM VCSH BKN035
     FM010300 34015G24KT 5SM -SHSN SCT020 BKN030=



000
FTUS43 KLOT 311000 AAB
TAFORD
TAF AMD
KORD 311010Z 3110/0112 33018G27KT P6SM -SHRA SCT025 OVC035
     FM311200 34023G32KT 6SM -SHSN BKN020 OVC035
      TEMPO 3112/3114 1 1/2SM -SHSN SCT010 OVC020
     FM311500 36026G37KT P6SM BKN035
     FM312100 36026G39KT P6SM SCT035
     FM010000 36020G30KT P6SM BKN035
     FM010300 35015G24KT P6SM VCSH BKN035
     FM010800 35012KT P6SM BKN030=



000
FTUS43 KLOT 311000 AAB
TAFRFD
TAF AMD
KRFD 311010Z 3110/0106 34018G27KT P6SM VCSH SCT025 OVC035
     FM311100 33016G26KT P6SM -SHSN BKN025 OVC035
      TEMPO 3111/3113 1 1/2SM -SHSN SCT010 OVC020
     FM311300 36025G36KT P6SM BKN035
     FM312200 35020G28KT P6SM FEW040
     FM010100 35015KT P6SM FEW040=



000
FTUS43 KLOT 310900 AAA
TAFORD
TAF AMD
KORD 310913Z 3109/0112 32016G26KT P6SM -SHRA SCT025 OVC035
     FM311200 34023G32KT 6SM -SHSN BKN020 OVC035
      TEMPO 3112/3114 3SM -SHSN
     FM311500 36026G40KT P6SM BKN030
     FM311700 36025G36KT P6SM BKN035
     FM312100 36026G39KT P6SM SCT035
     FM010000 36020G30KT P6SM BKN035
     FM010300 35015G24KT P6SM VCSH BKN035
     FM010800 35012KT P6SM BKN030=



000
FTUS43 KLOT 310900 AAA
TAFGYY
TAF AMD
KGYY 310913Z 3109/0106 32016G26KT P6SM -SHRA SCT025 OVC035
     FM311200 34025G34KT 6SM -SHRASN BKN015 OVC030
      TEMPO 3113/3115 2SM -SHSN
     FM311600 36030G42KT 4SM RASN SCT009 BKN015 OVC025
      TEMPO 3118/3122 1SM TSRASN OVC009CB
     FM312200 36030G40KT 2SM -SHRASN BKN010 OVC020
     FM010200 36025G35KT 4SM RASN BKN015 OVC025=



000
FTUS43 KLOT 310900 AAA
TAFRFD
TAF AMD
KRFD 310913Z 3109/0106 32016G26KT P6SM VCSH SCT025 OVC035
     FM311100 33016G26KT P6SM -SHSN BKN025 OVC035
      TEMPO 3111/3113 2SM -SHSN
     FM311300 36025G36KT P6SM BKN035
     FM312200 35020G28KT P6SM FEW040
     FM010100 35015KT P6SM FEW040=



000
FTUS43 KLOT 310900 AAA
TAFDPA
TAF AMD
KDPA 310913Z 3109/0106 32016G26KT P6SM -SHRA SCT025 OVC035
     FM311200 34023G32KT 6SM -SHSN BKN020 OVC035
      TEMPO 3112/3114 2SM -SHSN
     FM311500 36026G40KT P6SM BKN030
     FM311700 36025G36KT P6SM BKN035
     FM312000 36026G39KT P6SM SCT035
     FM312300 36020G30KT P6SM FEW035
     FM010200 35015G24KT P6SM SCT035=



000
FTUS43 KLOT 310900 AAA
TAFMDW
TAF AMD
KMDW 310913Z 3109/0106 32016G26KT P6SM -SHRA SCT025 OVC035
     FM311200 34023G32KT 6SM -SHSN BKN020 OVC035
      TEMPO 3112/3114 3SM -SHSN
     FM311500 36026G40KT P6SM BKN030
     FM311700 36025G36KT P6SM BKN035
     FM010000 36020G30KT P6SM VCSH BKN035
     FM010300 34015G24KT 5SM -SHSN SCT020 BKN030=



000
FTUS43 KLOT 310500 RRA
TAFRFD
TAF
KRFD 310546Z 3106/0106 31011G17KT P6SM SCT025 OVC035
     FM310700 32016G26KT P6SM VCSH SCT010 OVC025
     FM311300 36025G36KT P6SM SCT035
     FM312200 35020G28KT P6SM FEW040
     FM010100 35015KT P6SM FEW040=



000
FTUS43 KLOT 310500 RRA
TAFGYY
TAF
KGYY 310546Z 3106/0106 27006KT P6SM BKN050
     FM310700 30011G17KT P6SM -SHRA SCT025 OVC035
     FM310900 32016G26KT P6SM -SHRA SCT010 OVC025
     FM311200 34025G34KT 6SM -SHRASN BKN015 OVC030
     FM311600 36030G42KT 4SM RASN SCT009 BKN015 OVC025
      TEMPO 3118/3122 1SM TSRASN OVC009CB
     FM010100 36025G35KT 4SM RASN BKN015 OVC025=



000
FTUS43 KLOT 310500 RRA
TAFDPA
TAF
KDPA 310546Z 3106/0106 30011G17KT P6SM -SHRA SCT025 OVC035
     FM310800 32016G26KT P6SM -SHRA SCT010 OVC025
     FM311200 34023G32KT 6SM -SHSN BKN020 OVC035
     FM311500 36026G40KT P6SM SCT035
     FM312300 36020G30KT P6SM FEW035
     FM010200 35015G24KT P6SM SCT035=



000
FTUS43 KLOT 310500 RRA
TAFORD
TAF
KORD 310546Z 3106/0112 30011G17KT P6SM -SHRA SCT025 OVC035
     FM310800 32016G26KT P6SM -SHRA SCT010 OVC025
     FM311200 34023G32KT 6SM -SHSN BKN020 OVC035
     FM311500 36026G40KT P6SM BKN035
     FM312300 36020G30KT P6SM BKN035
     FM010300 35015G24KT P6SM BKN035
     FM010800 35012KT P6SM BKN030=



000
FTUS43 KLOT 310500 RRA
TAFMDW
TAF
KMDW 310546Z 3106/0106 27006KT P6SM BKN060
     FM310700 30011G17KT P6SM -SHRA SCT025 OVC035
     FM310900 32016G26KT P6SM -SHRA SCT010 OVC025
     FM311200 34023G32KT 6SM -SHSN BKN020 OVC035
     FM311500 36026G40KT P6SM BKN035
     FM312300 36020G30KT P6SM VCSH BKN035
     FM010300 34015G24KT 6SM -SHSN SCT020 BKN030=



000
FTUS43 KLOT 310300 AAA
TAFMDW
TAF AMD
KMDW 310300Z 3103/3124 27006KT P6SM BKN060
     FM310700 30011G17KT P6SM -SHRA SCT020 OVC035
     FM310900 32016G26KT P6SM -SHRA SCT010 OVC020
     FM311200 34023G32KT 6SM -SHSN BKN020 OVC035
     FM311500 36026G40KT P6SM BKN035
     FM312300 36020G30KT 6SM -SHSN BKN035=



000
FTUS43 KLOT 310300 AAA
TAFRFD
TAF AMD
KRFD 310300Z 3103/3124 30007KT P6SM FEW035 OVC050
     FM310400 31011G17KT P6SM -SHRA SCT020 OVC035
     FM310700 32016G26KT P6SM VCSH SCT010 OVC020
     FM311300 36025G38KT P6SM SCT035
     FM312200 35020G30KT P6SM FEW040=



000
FTUS43 KLOT 310300 AAA
TAFORD
TAF AMD
KORD 310300Z 3103/0106 27006KT P6SM BKN060
     FM310600 30011G17KT P6SM -SHRA SCT020 OVC035
     FM310800 32016G26KT P6SM -SHRA SCT010 OVC020
     FM311200 34023G32KT 6SM -SHSN BKN020 OVC035
     FM311500 36026G40KT P6SM BKN035
     FM010000 36020G30KT P6SM BKN035
     FM010300 35015G24KT P6SM BKN035=



000
FTUS43 KLOT 310300 AAA
TAFDPA
TAF AMD
KDPA 310300Z 3103/3124 27006KT P6SM BKN060
     FM310600 30011G17KT P6SM -SHRA SCT020 OVC035
     FM310800 32016G26KT P6SM -SHRA SCT010 OVC020
     FM311200 34023G32KT 6SM -SHSN BKN020 OVC035
     FM311500 36026G40KT P6SM SCT035=



000
FTUS43 KLOT 310300 AAA
TAFGYY
TAF AMD
KGYY 310300Z 3103/3124 27006KT P6SM BKN060
     FM310700 30011G17KT P6SM -SHRA SCT020 OVC035
     FM310900 32016G26KT P6SM -SHRA SCT010 OVC020
     FM311200 34025G34KT 6SM -SHRASN BKN015 OVC030
     FM311500 36028G42KT 4SM RASN SCT009 BKN015 OVC025
      TEMPO 3118/3122 1SM TSRASN OVC009CB=



000
FTUS43 KLOT 302300
TAFDPA
TAF
KDPA 302335Z 3100/3124 27006KT P6SM FEW035 OVC060
     FM310600 30011G17KT P6SM -SHRA SCT020 OVC030
     FM310800 32016G26KT P6SM VCSH SCT010 OVC020
     FM311200 34023G32KT 6SM -SHSN BKN020 OVC035
     FM311500 36026G40KT P6SM SCT035=



000
FTUS43 KLOT 302300
TAFMDW
TAF
KMDW 302335Z 3100/3124 27006KT P6SM FEW035 OVC060
     FM310600 30011G17KT P6SM -SHRA SCT020 OVC030
     FM310800 32016G26KT P6SM VCSH SCT010 OVC020
     FM311200 34023G32KT 6SM -SHSN BKN020 OVC035
     FM311500 36026G40KT P6SM BKN035
     FM312300 36020G30KT 6SM -SHSN BKN035=



000
FTUS43 KLOT 302300
TAFRFD
TAF
KRFD 302335Z 3100/3124 28006KT P6SM FEW035 OVC060
     FM310400 30011G17KT P6SM -SHRA SCT020 OVC030
     FM310700 32016G26KT P6SM VCSH SCT010 OVC020
     FM311300 36025G38KT P6SM SCT035
     FM312200 35020G30KT P6SM FEW040=



000
FTUS43 KLOT 302300
TAFGYY
TAF
KGYY 302335Z 3100/3124 27006KT P6SM FEW035 OVC060
     FM310600 30011G17KT P6SM -SHRA SCT020 OVC030
     FM310900 32016G26KT P6SM -SHRA SCT010 OVC020
     FM311200 34025G34KT 6SM -SHRASN BKN015 OVC030
     FM311500 36028G42KT 4SM RASN SCT009 BKN015 OVC025
      TEMPO 3118/3122 1SM TSRASN OVC009CB=



000
FTUS43 KLOT 302300
TAFORD
TAF
KORD 302335Z 3100/0106 27006KT P6SM FEW035 OVC060
     FM310600 30011G17KT P6SM -SHRA SCT020 OVC030
     FM310800 32016G26KT P6SM VCSH SCT010 OVC020
     FM311200 34023G32KT 6SM -SHSN BKN020 OVC035
     FM311500 36026G40KT P6SM BKN035
     FM010000 36020G30KT P6SM BKN035
     FM010300 35015G24KT P6SM BKN035=



000
FTUS43 KLOT 302200 AAB
TAFMDW
TAF AMD
KMDW 302200Z 3022/3118 23006KT P6SM FEW035 OVC080
     FM310400 29010G16KT P6SM VCSH SCT020 OVC030
     FM310700 33014G24KT P6SM -SHSN SCT010 BKN015
     FM311400 35024G35KT P6SM BKN030=



000
FTUS43 KLOT 302200 AAB
TAFDPA
TAF AMD
KDPA 302200Z 3022/3118 26006KT P6SM FEW035 OVC070
     FM310400 30010G16KT P6SM VCSH SCT020 OVC030
     FM310700 33014G24KT P6SM -SHSN SCT012 BKN018
     FM311400 35024G35KT P6SM BKN030=



000
FTUS43 KLOT 302200 AAB
TAFORD
TAF AMD
KORD 302200Z 3022/3124 26006KT P6SM FEW035 OVC080
     FM310400 30010G16KT P6SM VCSH SCT020 OVC030
     FM310700 33014G24KT P6SM -SHSN SCT010 BKN015
     FM311400 35024G35KT P6SM BKN030
     FM311800 36026G40KT P6SM SCT035=



000
FTUS43 KLOT 302200 AAB
TAFRFD
TAF AMD
KRFD 302200Z 3022/3118 28006KT P6SM FEW035 OVC070
     FM310300 31010G16KT P6SM VCSH SCT020 OVC030
     FM310600 33014G24KT P6SM -SHSN SCT012 BKN018
     FM311300 35024G35KT P6SM BKN030=



000
FTUS43 KLOT 302200 AAB
TAFGYY
TAF AMD
KGYY 302200Z 3022/3118 26007KT P6SM FEW035 OVC080
     FM310500 30010G16KT P6SM VCSH SCT020 OVC030
     FM310800 33016G27KT P6SM -SHSN SCT012 BKN018
     FM311400 35024G35KT P6SM BKN030=



000
FTUS43 KLOT 302200 AAB
TAFMDW
TAF AMD
KMDW 302200Z 3022/3118 23006KT P6SM FEW035 OVC080
     FM310400 29010G16KT P6SM VCSH SCT020 OVC030
     FM310700 33014G24KT P6SM -SHSN SCT010 BKN015
     FM311400 35024G35KT P6SM BKN030=



000
FTUS43 KLOT 302200 AAB
TAFDPA
TAF AMD
KDPA 302200Z 3022/3118 26006KT P6SM FEW035 OVC070
     FM310400 30010G16KT P6SM VCSH SCT020 OVC030
     FM310700 33014G24KT P6SM -SHSN SCT012 BKN018
     FM311400 35024G35KT P6SM BKN030=



000
FTUS43 KLOT 302200 AAB
TAFRFD
TAF AMD
KRFD 302200Z 3022/3118 28006KT P6SM FEW035 OVC070
     FM310300 31010G16KT P6SM VCSH SCT020 OVC030
     FM310600 33014G24KT P6SM -SHSN SCT012 BKN018
     FM311300 35024G35KT P6SM BKN030=



000
FTUS43 KLOT 302200 AAB
TAFGYY
TAF AMD
KGYY 302200Z 3022/3118 26007KT P6SM FEW035 OVC080
     FM310500 30010G16KT P6SM VCSH SCT020 OVC030
     FM310800 33016G27KT P6SM -SHSN SCT012 BKN018
     FM311400 35024G35KT P6SM BKN030=



000
FTUS43 KLOT 302200 AAB
TAFORD
TAF AMD
KORD 302200Z 3022/3124 26006KT P6SM FEW035 OVC080
     FM310400 30010G16KT P6SM VCSH SCT020 OVC030
     FM310700 33014G24KT P6SM -SHSN SCT010 BKN015
     FM311400 35024G35KT P6SM BKN030
     FM311800 36026G40KT P6SM SCT035=



000
FTUS43 KLOT 302000 AAA
TAFRFD
TAF AMD
KRFD 302005Z 3020/3118 27008KT P6SM SCT050 BKN080
     FM302200 29005KT P6SM SCT035 OVC070
     FM310300 31010G16KT P6SM VCSH SCT020 OVC030
     FM310600 33014G24KT P6SM -SHSN SCT012 BKN018
     FM311300 35024G35KT P6SM BKN030=



000
FTUS43 KLOT 302000 AAA
TAFMDW
TAF AMD
KMDW 302005Z 3020/3118 24009KT P6SM SCT050 BKN080
     FM302300 26005KT P6SM SCT035 OVC070
     FM310400 29010G16KT P6SM VCSH SCT020 OVC030
     FM310700 33014G24KT P6SM -SHSN SCT010 BKN015
     FM311400 35024G35KT P6SM BKN030=



000
FTUS43 KLOT 302000 AAA
TAFGYY
TAF AMD
KGYY 302005Z 3020/3118 23008KT P6SM SCT050 BKN090
     FM302300 25005KT P6SM SCT035 OVC080
     FM310500 30010G16KT P6SM VCSH SCT020 OVC030
     FM310800 33016G27KT P6SM -SHSN SCT012 BKN018
     FM311400 35024G35KT P6SM BKN030=



000
FTUS43 KLOT 302000 AAA
TAFORD
TAF AMD
KORD 302005Z 3020/3124 25009KT P6SM SCT050 BKN080
     FM302300 26005KT P6SM SCT035 OVC070
     FM310400 30010G16KT P6SM VCSH SCT020 OVC030
     FM310700 33014G24KT P6SM -SHSN SCT010 BKN015
     FM311400 35024G35KT P6SM BKN030
     FM311800 36026G40KT P6SM SCT035=



000
FTUS43 KLOT 302000 AAA
TAFDPA
TAF AMD
KDPA 302005Z 3020/3118 23008KT P6SM SCT050 BKN080
     FM302300 25005KT P6SM SCT035 OVC070
     FM310400 30010G16KT P6SM VCSH SCT020 OVC030
     FM310700 33014G24KT P6SM -SHSN SCT012 BKN018
     FM311400 35024G35KT P6SM BKN030=



000
FTUS43 KLOT 301700
TAFORD
TAF
KORD 301739Z 3018/3124 23009KT P6SM SCT060 BKN090
     FM302300 25005KT P6SM SCT035 OVC070
     FM310400 30010G16KT P6SM VCSH SCT020 OVC030
     FM310700 33014G24KT P6SM -SHSN SCT010 BKN015
     FM311400 35024G35KT P6SM BKN030
     FM311800 36026G40KT P6SM SCT035=



000
FTUS43 KLOT 301700
TAFRFD
TAF
KRFD 301739Z 3018/3118 23008KT P6SM SCT050 BKN080
     FM302200 26005KT P6SM SCT035 OVC070
     FM310300 30010G16KT P6SM VCSH SCT020 OVC030
     FM310600 33014G24KT P6SM -SHSN SCT012 BKN018
     FM311300 35024G35KT P6SM BKN030=



000
FTUS43 KLOT 301700
TAFORD
TAF
KORD 301739Z 3018/3124 23009KT P6SM SCT060 BKN090
     FM302300 25005KT P6SM SCT035 OVC070
     FM310400 30010G16KT P6SM VCSH SCT020 OVC030
     FM310700 33014G24KT P6SM -SHSN SCT010 BKN015
     FM311400 35024G35KT P6SM BKN030
     FM311800 36026G40KT P6SM SCT035=



000
FTUS43 KLOT 301700
TAFGYY
TAF
KGYY 301739Z 3018/3118 23008KT P6SM SCT060 BKN100
     FM302300 25005KT P6SM SCT035 OVC080
     FM310500 30010G16KT P6SM VCSH SCT020 OVC030
     FM310800 33016G27KT P6SM -SHSN SCT012 BKN018
     FM311400 35024G35KT P6SM BKN030=



000
FTUS43 KLOT 301700
TAFDPA
TAF
KDPA 301739Z 3018/3118 23008KT P6SM SCT060 BKN090
     FM302300 25005KT P6SM SCT035 OVC070
     FM310400 30010G16KT P6SM VCSH SCT020 OVC030
     FM310700 33014G24KT P6SM -SHSN SCT012 BKN018
     FM311400 35024G35KT P6SM BKN030=



000
FTUS43 KLOT 301700
TAFMDW
TAF
KMDW 301739Z 3018/3118 22009KT P6SM SCT060 BKN090
     FM302300 24005KT P6SM SCT035 OVC070
     FM310400 29010G16KT P6SM VCSH SCT020 OVC030
     FM310700 33014G24KT P6SM -SHSN SCT010 BKN015
     FM311400 35024G35KT P6SM BKN030=



000
FTUS43 KLOT 301700
TAFDPA
TAF
KDPA 301739Z 3018/3118 23008KT P6SM SCT060 BKN090
     FM302300 25005KT P6SM SCT035 OVC070
     FM310400 30010G16KT P6SM VCSH SCT020 OVC030
     FM310700 33014G24KT P6SM -SHSN SCT012 BKN018
     FM311400 35024G35KT P6SM BKN030=



000
FTUS43 KLOT 301700
TAFRFD
TAF
KRFD 301739Z 3018/3118 23008KT P6SM SCT050 BKN080
     FM302200 26005KT P6SM SCT035 OVC070
     FM310300 30010G16KT P6SM VCSH SCT020 OVC030
     FM310600 33014G24KT P6SM -SHSN SCT012 BKN018
     FM311300 35024G35KT P6SM BKN030=



000
FTUS43 KLOT 301700
TAFGYY
TAF
KGYY 301739Z 3018/3118 23008KT P6SM SCT060 BKN100
     FM302300 25005KT P6SM SCT035 OVC080
     FM310500 30010G16KT P6SM VCSH SCT020 OVC030
     FM310800 33016G27KT P6SM -SHSN SCT012 BKN018
     FM311400 35024G35KT P6SM BKN030=



000
FTUS43 KLOT 301700
TAFMDW
TAF
KMDW 301739Z 3018/3118 22009KT P6SM SCT060 BKN090
     FM302300 24005KT P6SM SCT035 OVC070
     FM310400 29010G16KT P6SM VCSH SCT020 OVC030
     FM310700 33014G24KT P6SM -SHSN SCT010 BKN015
     FM311400 35024G35KT P6SM BKN030=



000
FTUS43 KLOT 301600 AAB
TAFDPA
TAF AMD
KDPA 301603Z 3016/3112 20007KT P6SM SCT120 BKN250
     FM301900 23008KT P6SM SCT050 BKN100
     FM302300 27004KT P6SM SCT035 OVC060
     FM310400 30010KT P6SM VCSH BKN012 OVC025
     FM310900 33014G24KT P6SM SCT012 BKN035=



000
FTUS43 KLOT 301600 AAB
TAFRFD
TAF AMD
KRFD 301603Z 3016/3112 21005KT P6SM BKN100 BKN250
     FM301800 24007KT P6SM SCT040 BKN090
     FM310100 25005KT P6SM SCT012 OVC040
     FM310200 33010KT P6SM VCSH OVC012
     FM310800 33014G24KT P6SM SCT012 BKN035=



000
FTUS43 KLOT 301600 AAB
TAFGYY
TAF AMD
KGYY 301603Z 3016/3112 21008KT P6SM SCT120 BKN250
     FM301900 24009KT P6SM SCT050 BKN100
     FM310000 26004KT P6SM SCT035 OVC060
     FM310600 30010KT P6SM VCSH BKN012 OVC025
     FM311100 33014G24KT P6SM SCT012 BKN035=



000
FTUS43 KLOT 301600 AAB
TAFORD
TAF AMD
KORD 301603Z 3016/3118 22008KT P6SM SCT120 BKN250
     FM301900 24008KT P6SM SCT050 BKN100
     FM302300 26005KT P6SM SCT035 OVC060
     FM310400 30010KT P6SM VCSH BKN012 OVC025
     FM310900 33014G24KT P6SM SCT012 BKN035
     FM311400 35024G35KT P6SM SCT035=



000
FTUS43 KLOT 301600 AAB
TAFMDW
TAF AMD
KMDW 301603Z 3016/3112 22008KT P6SM SCT120 BKN250
     FM301900 24008KT P6SM SCT050 BKN100
     FM302300 27006KT P6SM SCT035 OVC060
     FM310500 30010KT P6SM VCSH BKN012 OVC025
     FM311000 33014G24KT P6SM SCT012 BKN035=



000
FTUS43 KLOT 301400 AAA
TAFMDW
TAF AMD
KMDW 301407Z 3014/3112 21006KT P6SM SCT120 BKN250
     FM301900 24007KT P6SM SCT040 BKN100
     FM302300 27006KT P6SM SCT035 OVC060
     FM310500 30010KT P6SM VCSH BKN012 OVC025
     FM311000 33014G24KT P6SM SCT012 BKN035=



000
FTUS43 KLOT 301400 AAA
TAFRFD
TAF AMD
KRFD 301407Z 3014/3112 20005KT P6SM SCT100 BKN250
     FM301800 25008KT P6SM SCT040 BKN100
     FM310100 25005KT P6SM SCT012 OVC040
     FM310200 33010KT P6SM VCSH OVC012
     FM310800 33014G24KT P6SM SCT012 BKN035=



000
FTUS43 KLOT 301400 AAA
TAFGYY
TAF AMD
KGYY 301407Z 3014/3112 20007KT P6SM SCT120 BKN250
     FM301900 24005KT P6SM SCT040 BKN100
     FM310000 26004KT P6SM SCT035 OVC060
     FM310600 30010KT P6SM VCSH BKN012 OVC025
     FM311100 33014G24KT P6SM SCT012 BKN035=



000
FTUS43 KLOT 301400 AAA
TAFDPA
TAF AMD
KDPA 301407Z 3014/3112 20005KT P6SM SCT120 BKN250
     FM301900 24008KT P6SM SCT040 BKN100
     FM302300 27004KT P6SM SCT035 OVC060
     FM310400 30010KT P6SM VCSH BKN012 OVC025
     FM310900 33014G24KT P6SM SCT012 BKN035=



000
FTUS43 KLOT 301400 AAA
TAFORD
TAF AMD
KORD 301407Z 3014/3118 21006KT P6SM SCT120 BKN250
     FM301900 24007KT P6SM SCT040 BKN100
     FM302300 26005KT P6SM SCT035 OVC060
     FM310400 30010KT P6SM VCSH BKN012 OVC025
     FM310900 33014G24KT P6SM SCT012 BKN035
     FM311400 35024G35KT P6SM SCT035=



000
FTUS43 KLOT 301100
TAFMDW
TAF
KMDW 301120Z 3012/3112 27002KT P6SM BKN250
     FM301300 22005KT P6SM SCT050 BKN250
     FM301900 25005KT P6SM SCT040 BKN100
     FM302300 27006KT P6SM SCT035 OVC060
     FM310500 30010KT P6SM VCSH BKN012 OVC025
     FM311000 33014G24KT P6SM SCT012 BKN035=



000
FTUS43 KLOT 301100
TAFRFD
TAF
KRFD 301120Z 3012/3112 VRB02KT P6SM BKN250
     FM301300 21005KT P6SM SCT050 BKN250
     FM301900 27008KT P6SM SCT040 BKN100
     FM310100 25005KT P6SM SCT012 OVC040
     FM310200 33010KT P6SM VCSH OVC012
     FM310800 33014G24KT P6SM SCT012 BKN035=



000
FTUS43 KLOT 301100
TAFDPA
TAF
KDPA 301120Z 3012/3112 00000KT P6SM BKN250
     FM301300 22005KT P6SM SCT050 BKN250
     FM301900 25008KT P6SM SCT040 BKN100
     FM302300 27004KT P6SM SCT035 OVC060
     FM310400 30010KT P6SM VCSH BKN012 OVC025
     FM310900 33014G24KT P6SM SCT012 BKN035=



000
FTUS43 KLOT 301100
TAFORD
TAF
KORD 301120Z 3012/3118 VRB02KT P6SM BKN250
     FM301300 23005KT P6SM SCT050 BKN250
     FM301900 24005KT P6SM SCT040 BKN100
     FM302300 26005KT P6SM SCT035 OVC060
     FM310400 30010KT P6SM VCSH BKN012 OVC025
     FM310900 33014G24KT P6SM SCT012 BKN035
     FM311400 35024G35KT P6SM SCT035=



000
FTUS43 KLOT 301100
TAFGYY
TAF
KGYY 301120Z 3012/3112 23004KT P6SM SCT250
     FM301300 20005KT P6SM SCT050 BKN250
     FM301900 25005KT P6SM SCT040 BKN100
     FM310000 26004KT P6SM SCT035 OVC060
     FM310600 30010KT P6SM VCSH BKN012 OVC025
     FM311100 33014G24KT P6SM SCT012 BKN035=



000
FTUS43 KLOT 300800 AAA
TAFGYY
TAF AMD
KGYY 300855Z 3009/3106 23004KT P6SM SCT250
     FM301300 20005KT P6SM SCT050 BKN250
     FM301900 24008KT P6SM SCT040 BKN100
     FM302300 27004KT P6SM SCT035 OVC060=



000
FTUS43 KLOT 300800 AAA
TAFORD
TAF AMD
KORD 300855Z 3009/3112 VRB02KT P6SM BKN250
     FM301300 23005KT P6SM SCT050 BKN250
     FM301900 25007KT P6SM SCT040 BKN100
     FM302300 27004KT P6SM SCT035 OVC060
     FM310400 34010G18KT P6SM VCSH BKN012 OVC025
     FM310700 33012G22KT P6SM VCSH OVC012=



000
FTUS43 KLOT 300800 AAA
TAFDPA
TAF AMD
KDPA 300855Z 3009/3106 00000KT P6SM BKN250
     FM301300 22005KT P6SM SCT050 BKN250
     FM301900 25008KT P6SM SCT040 BKN100
     FM302300 27004KT P6SM SCT035 OVC060
     FM310400 33010G18KT P6SM VCSH OVC012=



000
FTUS43 KLOT 300800 AAA
TAFMDW
TAF AMD
KMDW 300855Z 3009/3106 27002KT P6SM BKN250
     FM301300 23005KT P6SM SCT050 BKN250
     FM301900 25008KT P6SM SCT040 BKN100
     FM302300 27004KT P6SM SCT035 OVC060
     FM310500 34010G18KT P6SM BKN012 OVC025=



000
FTUS43 KLOT 300800 AAA
TAFRFD
TAF AMD
KRFD 300855Z 3009/3106 VRB02KT P6SM BKN250
     FM301300 21005KT P6SM SCT050 BKN250
     FM301900 27008KT P6SM SCT040 BKN100
     FM310100 25005KT P6SM SCT012 OVC040
     FM310300 33012G22KT P6SM VCSH OVC012=



000
FTUS43 KLOT 300500
TAFRFD
TAF
KRFD 300532Z 3006/3106 VRB03KT P6SM SCT250
     FM301300 21005KT P6SM BKN250
     FM301900 27008KT P6SM SCT040 BKN100
     FM310100 34012KT P6SM SCT012 OVC040
     FM310400 33014G28KT P6SM OVC012=



000
FTUS43 KLOT 300500
TAFORD
TAF
KORD 300532Z 3006/3112 27003KT P6SM SCT250
     FM301400 23005KT P6SM BKN250
     FM301900 25007KT P6SM SCT040 BKN100
     FM302300 27004KT P6SM SCT035 OVC060
     FM310500 34012KT P6SM BKN012 OVC025
     FM310700 33014G28KT P6SM OVC012=



000
FTUS43 KLOT 300500
TAFGYY
TAF
KGYY 300532Z 3006/3106 VRB03KT P6SM SCT250
     FM301300 20005KT P6SM BKN250
     FM301900 24008KT P6SM SCT040 BKN100
     FM302300 27004KT P6SM SCT035 OVC060=



000
FTUS43 KLOT 300500
TAFMDW
TAF
KMDW 300532Z 3006/3106 27003KT P6SM SCT250
     FM301300 23005KT P6SM BKN250
     FM301900 25008KT P6SM SCT040 BKN100
     FM302300 27004KT P6SM SCT035 OVC060
     FM310500 34012KT P6SM BKN012 OVC025=



000
FTUS43 KLOT 300500
TAFDPA
TAF
KDPA 300532Z 3006/3106 VRB03KT P6SM SCT250
     FM301300 22005KT P6SM BKN250
     FM301900 25008KT P6SM SCT040 BKN100
     FM302300 27004KT P6SM SCT035 OVC060=



000
FTUS43 KLOT 300300 AAA
TAFRFD
TAF AMD
KRFD 300302Z 3003/3024 VRB03KT P6SM SCT250
     FM301300 21005KT P6SM BKN250
     FM301900 27008KT P6SM SCT040 BKN100=



000
FTUS43 KLOT 300300 AAA
TAFGYY
TAF AMD
KGYY 300302Z 3003/3024 27005KT P6SM SCT045
     FM300500 VRB03KT P6SM SCT250
     FM301300 20005KT P6SM BKN250
     FM301900 24008KT P6SM SCT040 BKN100=



000
FTUS43 KLOT 300300 AAA
TAFORD
TAF AMD
KORD 300302Z 3003/3106 27004KT P6SM SCT250
     FM301300 23005KT P6SM BKN250
     FM301900 25008KT P6SM SCT040 BKN100
     FM310000 29008KT P6SM SCT035 OVC060=



000
FTUS43 KLOT 300300 AAA
TAFDPA
TAF AMD
KDPA 300302Z 3003/3024 VRB03KT P6SM SCT250
     FM301300 22005KT P6SM BKN250
     FM301900 25008KT P6SM SCT040 BKN100=



000
FTUS43 KLOT 300300 AAA
TAFMDW
TAF AMD
KMDW 300302Z 3003/3024 27004KT P6SM SCT250
     FM301300 23005KT P6SM BKN250
     FM301900 25008KT P6SM SCT040 BKN100=



000
FTUS43 KLOT 292300
TAFORD
TAF
KORD 292333Z 3000/3106 29007KT P6SM SCT045
     FM300200 28004KT P6SM SKC
     FM301300 23005KT P6SM BKN250
     FM301900 25008KT P6SM SCT040 BKN100
     FM310000 29008KT P6SM SCT035 OVC060=



000
FTUS43 KLOT 292300
TAFGYY
TAF
KGYY 292333Z 3000/3024 28007KT P6SM BKN045
     FM300300 28004KT P6SM SKC
     FM301300 20005KT P6SM BKN250
     FM301900 24008KT P6SM SCT040 BKN100=



000
FTUS43 KLOT 292300
TAFMDW
TAF
KMDW 292333Z 3000/3024 29007KT P6SM BKN045
     FM300200 28004KT P6SM SKC
     FM301300 23005KT P6SM BKN250
     FM301900 25008KT P6SM SCT040 BKN100=



000
FTUS43 KLOT 292300
TAFRFD
TAF
KRFD 292333Z 3000/3024 28006KT P6SM FEW045
     FM300200 00000KT P6SM SKC
     FM301300 21005KT P6SM BKN250
     FM301900 27008KT P6SM SCT040 BKN100=



000
FTUS43 KLOT 292300
TAFDPA
TAF
KDPA 292333Z 3000/3024 29006KT P6SM SCT045
     FM300200 VRB03KT P6SM SKC
     FM301300 22005KT P6SM BKN250
     FM301900 25008KT P6SM SCT040 BKN100=



000
FTUS43 KLOT 292200 AAB
TAFGYY
TAF AMD
KGYY 292202Z 2922/3018 27011G16KT P6SM BKN045
     FM300000 28010KT P6SM BKN045
     FM300200 28005KT P6SM FEW040
     FM301600 24004KT P6SM SCT120 BKN250=



000
FTUS43 KLOT 292200 AAB
TAFORD
TAF AMD
KORD 292202Z 2922/3024 29010KT P6SM BKN045
     FM292300 29007KT P6SM SCT045
     FM300200 28003KT P6SM SKC
     FM301600 24004KT P6SM SCT120 BKN250
     FM301900 23007KT P6SM SCT050 BKN100=



000
FTUS43 KLOT 292200 AAB
TAFDPA
TAF AMD
KDPA 292202Z 2922/3018 29009KT P6SM BKN045
     FM292300 29007KT P6SM SCT045
     FM300200 00000KT P6SM SKC
     FM301600 23004KT P6SM SCT120 BKN250=



000
FTUS43 KLOT 292200 AAB
TAFMDW
TAF AMD
KMDW 292202Z 2922/3018 29010KT P6SM BKN045
     FM292300 29007KT P6SM SCT045
     FM300200 28003KT P6SM SKC
     FM301600 24004KT P6SM SCT120 BKN250=



000
FTUS43 KLOT 292200 AAB
TAFRFD
TAF AMD
KRFD 292202Z 2922/3018 29007KT P6SM SCT045
     FM300200 00000KT P6SM SCT250
     FM301600 24004KT P6SM SCT120 BKN250=



000
FTUS43 KLOT 291900 AAA
TAFGYY
TAF AMD
KGYY 291958Z 2920/3018 29011G16KT P6SM BKN040
     FM300000 30010G15KT P6SM BKN040
     FM300200 28005KT P6SM FEW040
     FM301600 24004KT P6SM SCT120 BKN250=



000
FTUS43 KLOT 291900 AAA
TAFDPA
TAF AMD
KDPA 291958Z 2920/3018 30009KT P6SM BKN040
     FM292300 31007KT P6SM SCT040
     FM300200 00000KT P6SM SKC
     FM301600 23004KT P6SM SCT120 BKN250=



000
FTUS43 KLOT 291900 AAA
TAFORD
TAF AMD
KORD 291958Z 2920/3024 30010KT P6SM BKN040
     FM292300 31007KT P6SM SCT040
     FM300200 28003KT P6SM SKC
     FM301600 24004KT P6SM SCT120 BKN250
     FM301900 23007KT P6SM SCT050 BKN100=



000
FTUS43 KLOT 291900 AAA
TAFRFD
TAF AMD
KRFD 291958Z 2920/3018 31010KT P6SM BKN040
     FM292200 31007KT P6SM SCT040
     FM300200 00000KT P6SM SCT250
     FM301600 24004KT P6SM SCT120 BKN250=



000
FTUS43 KLOT 291900 AAA
TAFMDW
TAF AMD
KMDW 291958Z 2920/3018 30010KT P6SM BKN040
     FM292300 31007KT P6SM SCT040
     FM300200 28003KT P6SM SKC
     FM301600 24004KT P6SM SCT120 BKN250=



000
FTUS43 KLOT 291700
TAFORD
TAF
KORD 291738Z 2918/3024 30010G15KT P6SM BKN040
     FM292300 31007KT P6SM SCT040
     FM300200 28003KT P6SM SKC
     FM301600 24004KT P6SM SCT120 BKN250
     FM301900 23007KT P6SM SCT050 BKN100=



000
FTUS43 KLOT 291700
TAFRFD
TAF
KRFD 291738Z 2918/3018 31010G15KT P6SM BKN040
     FM292300 31007KT P6SM SCT040
     FM300200 00000KT P6SM SCT250
     FM301600 24004KT P6SM SCT120 BKN250=



000
FTUS43 KLOT 291700
TAFMDW
TAF
KMDW 291738Z 2918/3018 30010G15KT P6SM BKN040
     FM292300 31007KT P6SM SCT040
     FM300200 28003KT P6SM SKC
     FM301600 24004KT P6SM SCT120 BKN250=



000
FTUS43 KLOT 291700
TAFDPA
TAF
KDPA 291738Z 2918/3018 30010G15KT P6SM BKN040
     FM292300 31007KT P6SM SCT040
     FM300200 00000KT P6SM SKC
     FM301600 23004KT P6SM SCT120 BKN250=



000
FTUS43 KLOT 291700
TAFGYY
TAF
KGYY 291738Z 2918/3018 29012G17KT P6SM BKN040
     FM292300 30010G16KT P6SM BKN040
     FM300200 28005KT P6SM FEW040
     FM301600 24004KT P6SM SCT120 BKN250=



000
FTUS43 KLOT 291600 AAB
TAFGYY
TAF AMD
KGYY 291606Z 2916/3012 28012G18KT P6SM OVC040
     FM291900 30011KT P6SM BKN040
     FM300200 32003KT P6SM SKC=



000
FTUS43 KLOT 291600 AAB
TAFRFD
TAF AMD
KRFD 291606Z 2916/3012 30011G16KT P6SM OVC040
     FM291800 31010KT P6SM BKN040
     FM300200 32003KT P6SM SKC=



000
FTUS43 KLOT 291600 AAB
TAFDPA
TAF AMD
KDPA 291606Z 2916/3012 29011G16KT P6SM OVC040
     FM291900 31011KT P6SM BKN040
     FM300200 32003KT P6SM SKC=



000
FTUS43 KLOT 291600 AAB
TAFMDW
TAF AMD
KMDW 291606Z 2916/3012 29011G16KT P6SM OVC040
     FM291900 31011KT P6SM BKN040
     FM300200 32003KT P6SM SKC=



000
FTUS43 KLOT 291600 AAB
TAFORD
TAF AMD
KORD 291606Z 2916/3018 29011G16KT P6SM OVC040
     FM291900 31011KT P6SM BKN040
     FM292300 30005KT P6SM SCT040
     FM300200 VRB03KT P6SM SKC
     FM301600 24004KT P6SM SCT250=



000
FTUS43 KLOT 291400 AAA
TAFORD
TAF AMD
KORD 291407Z 2914/3018 29012G17KT P6SM OVC035
     FM291900 31011KT P6SM BKN035
     FM292300 30005KT P6SM SCT040
     FM300200 VRB03KT P6SM SKC
     FM301600 24004KT P6SM SCT250=



000
FTUS43 KLOT 291400 AAA
TAFRFD
TAF AMD
KRFD 291407Z 2914/3012 30011G16KT P6SM OVC035
     FM291800 31010KT P6SM BKN035
     FM300200 32003KT P6SM SKC=



000
FTUS43 KLOT 291400 AAA
TAFMDW
TAF AMD
KMDW 291407Z 2914/3012 29012G17KT P6SM OVC035
     FM291900 31011KT P6SM BKN035
     FM300200 32003KT P6SM SKC=



000
FTUS43 KLOT 291400 AAA
TAFGYY
TAF AMD
KGYY 291407Z 2914/3012 28012G18KT P6SM OVC040
     FM291900 31011KT P6SM BKN035
     FM300200 32003KT P6SM SKC=



000
FTUS43 KLOT 291400 AAA
TAFDPA
TAF AMD
KDPA 291407Z 2914/3012 29012G17KT P6SM OVC035
     FM291900 31011KT P6SM BKN035
     FM300200 32003KT P6SM SKC=



000
FTUS43 KLOT 291100
TAFMDW
TAF
KMDW 291127Z 2912/3012 29013G24KT P6SM BKN040
     FM291500 29012G17KT P6SM BKN035
     FM291900 31011KT P6SM BKN035
     FM300200 32003KT P6SM SKC=



000
FTUS43 KLOT 291100
TAFRFD
TAF
KRFD 291127Z 2912/3012 30013G24KT P6SM OVC035
     FM291500 29012G17KT P6SM SCT030
     FM291800 31010KT P6SM BKN035
     FM300200 32003KT P6SM SKC=



000
FTUS43 KLOT 291100
TAFGYY
TAF
KGYY 291127Z 2912/3012 29013G25KT P6SM BKN040
     FM291500 29012G17KT P6SM BKN035
     FM291900 31011KT P6SM BKN035
     FM300200 32003KT P6SM SKC=



000
FTUS43 KLOT 291100
TAFDPA
TAF
KDPA 291127Z 2912/3012 30013G24KT P6SM BKN040
     FM291500 29012G17KT P6SM SCT030
     FM291900 31011KT P6SM BKN035
     FM300200 32003KT P6SM SKC=



000
FTUS43 KLOT 291100
TAFORD
TAF
KORD 291127Z 2912/3018 29013G24KT P6SM BKN040
     FM291500 29012G17KT P6SM BKN035
     FM291900 31011KT P6SM BKN035
     FM292300 30005KT P6SM SCT040
     FM300200 VRB03KT P6SM SKC
     FM301600 24004KT P6SM SCT250=



000
FTUS43 KLOT 290800 AAA
TAFGYY
TAF AMD
KGYY 290859Z 2909/3006 27012KT P6SM BKN040
     FM291000 29013G25KT P6SM BKN040
     FM291500 29012G17KT P6SM BKN035
     FM291900 31011KT P6SM BKN035
     FM300200 32003KT P6SM SKC=



000
FTUS43 KLOT 290800 AAA
TAFDPA
TAF AMD
KDPA 290859Z 2909/3006 26010G18KT P6SM OVC035
     FM291000 30013G24KT P6SM BKN040
     FM291500 29012G17KT P6SM SCT030
     FM291900 31011KT P6SM BKN035
     FM300200 32003KT P6SM SKC=



000
FTUS43 KLOT 290800 AAA
TAFMDW
TAF AMD
KMDW 290859Z 2909/3006 27012G20KT P6SM OVC035
     FM291000 29013G24KT P6SM BKN040
     FM291500 29012G17KT P6SM BKN035
     FM291900 31011KT P6SM BKN035
     FM300200 32003KT P6SM SKC=



000
FTUS43 KLOT 290800 AAA
TAFRFD
TAF AMD
KRFD 290859Z 2909/3006 30013G24KT P6SM OVC035
     FM291500 29012G17KT P6SM SCT030
     FM291800 31010KT P6SM BKN035
     FM300200 32003KT P6SM SKC=



000
FTUS43 KLOT 290800 AAA
TAFORD
TAF AMD
KORD 290859Z 2909/3012 27012G20KT P6SM OVC035
     FM291000 29013G24KT P6SM BKN040
     FM291500 29012G17KT P6SM BKN035
     FM291900 31011KT P6SM BKN035
     FM292300 30005KT P6SM SCT040
     FM300200 VRB03KT P6SM SKC=



000
FTUS43 KLOT 290500 RRA
TAFORD
TAF
KORD 290546Z 2906/3012 26010KT P6SM FEW040
     FM290630 29013G24KT P6SM BKN040
     FM291500 29012G17KT P6SM BKN035
     FM291900 31011KT P6SM BKN035
     FM292300 30005KT P6SM SCT040
     FM300200 VRB03KT P6SM SKC=



000
FTUS43 KLOT 290500 RRA
TAFMDW
TAF
KMDW 290546Z 2906/3006 26009KT P6SM FEW040
     FM290700 29013G24KT P6SM BKN040
     FM291500 29012G17KT P6SM BKN035
     FM291900 31011KT P6SM BKN035
     FM300200 32003KT P6SM SKC=



000
FTUS43 KLOT 290500 RRA
TAFDPA
TAF
KDPA 290546Z 2906/3006 29013G24KT P6SM BKN040
     FM291500 29012G17KT P6SM SCT030
     FM291900 31011KT P6SM BKN035
     FM300200 32003KT P6SM SKC=



000
FTUS43 KLOT 290500 RRA
TAFGYY
TAF
KGYY 290546Z 2906/3006 27012KT P6SM FEW040
     FM290800 29013G25KT P6SM BKN040
     FM291500 29012G17KT P6SM BKN035
     FM291900 31011KT P6SM BKN035
     FM300200 32003KT P6SM SKC=



000
FTUS43 KLOT 290500 RRA
TAFRFD
TAF
KRFD 290546Z 2906/3006 29013G24KT P6SM BKN040
     FM291500 29012G17KT P6SM SCT030
     FM291800 31010KT P6SM BKN035
     FM300200 32003KT P6SM SKC=



000
FTUS43 KLOT 290300 AAA
TAFORD
TAF AMD
KORD 290304Z 2903/3006 27012KT P6SM SCT050
     FM290600 26012KT P6SM BKN040
     FM291500 29012G17KT P6SM SCT030
     FM291900 31011KT P6SM BKN035
     FM300100 30005KT P6SM SCT040=



000
FTUS43 KLOT 290300 AAA
TAFRFD
TAF AMD
KRFD 290304Z 2903/2924 27012KT P6SM BKN040
     FM291500 29012G17KT P6SM SCT030
     FM291800 31010KT P6SM BKN035=



000
FTUS43 KLOT 290300 AAA
TAFGYY
TAF AMD
KGYY 290304Z 2903/2924 27012KT P6SM SCT050 BKN250
     FM290700 26012KT P6SM BKN040
     FM291500 29012G17KT P6SM SCT030
     FM291900 31011KT P6SM BKN035=



000
FTUS43 KLOT 290300 AAA
TAFMDW
TAF AMD
KMDW 290304Z 2903/2924 27012KT P6SM SCT050
     FM290600 26012KT P6SM BKN040
     FM291500 29012G17KT P6SM SCT030
     FM291900 31011KT P6SM BKN035=



000
FTUS43 KLOT 290300 AAA
TAFDPA
TAF AMD
KDPA 290304Z 2903/2924 27012KT P6SM SCT050
     FM290500 26011KT P6SM BKN040
     FM291500 29012G17KT P6SM SCT030
     FM291900 31011KT P6SM BKN035=



000
FTUS43 KLOT 282300
TAFRFD
TAF
KRFD 282332Z 2900/2924 27012G18KT P6SM BKN050
     FM290300 26011KT P6SM BKN040
     FM291500 29012G17KT P6SM SCT030
     FM291800 31010KT P6SM BKN035=



000
FTUS43 KLOT 282300
TAFMDW
TAF
KMDW 282332Z 2900/2924 27012G18KT P6SM BKN050
     FM290400 26012KT P6SM BKN040
     FM291500 29012G17KT P6SM SCT030
     FM291900 31011KT P6SM BKN035=



000
FTUS43 KLOT 282300
TAFORD
TAF
KORD 282332Z 2900/3006 27012G18KT P6SM BKN050
     FM290400 26012KT P6SM BKN040
     FM291500 29012G17KT P6SM SCT030
     FM291900 31011KT P6SM BKN035
     FM300100 30005KT P6SM SCT040=



000
FTUS43 KLOT 282300
TAFDPA
TAF
KDPA 282332Z 2900/2924 27012G18KT P6SM BKN050
     FM290300 26011KT P6SM BKN040
     FM291500 29012G17KT P6SM SCT030
     FM291900 31011KT P6SM BKN035=



000
FTUS43 KLOT 282300
TAFGYY
TAF
KGYY 282332Z 2900/2924 27014G23KT P6SM BKN050
     FM290400 26012KT P6SM BKN040
     FM291500 29012G17KT P6SM SCT030
     FM291900 31011KT P6SM BKN035=



000
FTUS43 KLOT 282200 AAB
TAFGYY
TAF AMD
KGYY 282200Z 2822/2918 27017G27KT P6SM BKN050
     FM290000 26012KT P6SM BKN050
     FM290700 26009KT P6SM SKC
     FM291500 29011G16KT P6SM SCT030=



000
FTUS43 KLOT 282200 AAB
TAFORD
TAF AMD
KORD 282200Z 2822/2924 27015G24KT P6SM BKN050
     FM290000 26012KT P6SM BKN050
     FM290700 27009KT P6SM SKC
     FM291500 30011G16KT P6SM SCT030=



000
FTUS43 KLOT 282200 AAB
TAFMDW
TAF AMD
KMDW 282200Z 2822/2918 27015G24KT P6SM BKN050
     FM290000 26012KT P6SM BKN050
     FM290700 27009KT P6SM SKC
     FM291500 30011G16KT P6SM SCT030=



000
FTUS43 KLOT 282200 AAB
TAFDPA
TAF AMD
KDPA 282200Z 2822/2918 27015G24KT P6SM BKN050
     FM290000 26012KT P6SM BKN050
     FM290700 27009KT P6SM SKC
     FM291500 30011G16KT P6SM SCT030=



000
FTUS43 KLOT 282200 AAB
TAFRFD
TAF AMD
KRFD 282200Z 2822/2918 27015G24KT P6SM BKN050
     FM290000 27012KT P6SM BKN050
     FM290700 28008KT P6SM SKC
     FM291500 30011G16KT P6SM SCT030=



000
FTUS43 KLOT 281900 AAA
TAFGYY
TAF AMD
KGYY 281952Z 2820/2918 26018G29KT P6SM SCT040
     FM282300 26012KT P6SM SCT040
     FM290700 26009KT P6SM SKC
     FM291500 29011G16KT P6SM SCT030=



000
FTUS43 KLOT 281900 AAA
TAFORD
TAF AMD
KORD 281952Z 2820/2924 26018G28KT P6SM SCT050
     FM282100 26018G28KT P6SM BKN050
     FM282300 26012KT P6SM BKN050
     FM290700 27009KT P6SM SKC
     FM291500 30011G16KT P6SM SCT030=



000
FTUS43 KLOT 281900 AAA
TAFDPA
TAF AMD
KDPA 281952Z 2820/2918 26018G28KT P6SM SCT050
     FM282100 27018G28KT P6SM BKN050
     FM282300 26012KT P6SM BKN050
     FM290700 27009KT P6SM SKC
     FM291500 30011G16KT P6SM SCT030=



000
FTUS43 KLOT 281900 AAA
TAFRFD
TAF AMD
KRFD 281952Z 2820/2918 27017G27KT P6SM BKN050
     FM282300 27012KT P6SM BKN050
     FM290700 28008KT P6SM SKC
     FM291500 30011G16KT P6SM SCT030=



000
FTUS43 KLOT 281900 AAA
TAFMDW
TAF AMD
KMDW 281952Z 2820/2918 26018G28KT P6SM SCT050
     FM282300 26012KT P6SM BKN050
     FM290700 27009KT P6SM SKC
     FM291500 30011G16KT P6SM SCT030=



000
FTUS43 KLOT 281700
TAFMDW
TAF
KMDW 281720Z 2818/2918 26017G27KT P6SM SCT040
     FM282300 26012KT P6SM SCT040
     FM290700 27009KT P6SM SKC
     FM291500 30011G16KT P6SM SCT030=



000
FTUS43 KLOT 281700
TAFRFD
TAF
KRFD 281720Z 2818/2918 27017G27KT P6SM BKN040
     FM282300 26012KT P6SM BKN040
     FM290700 28008KT P6SM SKC
     FM291500 30011G16KT P6SM SCT030=



000
FTUS43 KLOT 281700
TAFGYY
TAF
KGYY 281720Z 2818/2918 26017G27KT P6SM SCT040
     FM282300 25012KT P6SM SCT040
     FM290700 26009KT P6SM SKC
     FM291500 29011G16KT P6SM SCT030=



000
FTUS43 KLOT 281700
TAFORD
TAF
KORD 281720Z 2818/2924 26016G26KT P6SM FEW040
     FM282000 26017G27KT P6SM SCT040
     FM282300 26012KT P6SM SCT040
     FM290700 27009KT P6SM SKC
     FM291500 30011G16KT P6SM SCT030=



000
FTUS43 KLOT 281700
TAFDPA
TAF
KDPA 281720Z 2818/2918 26016G26KT P6SM FEW040
     FM282000 26017G27KT P6SM SCT040
     FM282300 26012KT P6SM SCT040
     FM290700 27009KT P6SM SKC
     FM291500 30011G16KT P6SM SCT030=



000
FTUS43 KLOT 281500 AAB
TAFRFD
TAF AMD
KRFD 281557Z 2816/2912 27017G27KT P6SM SCT030
     FM290000 26012KT P6SM SCT035
     FM290700 29008KT P6SM SKC=



000
FTUS43 KLOT 281500 AAB
TAFORD
TAF AMD
KORD 281557Z 2816/2918 26017G27KT P6SM FEW030
     FM290000 26012KT P6SM FEW035
     FM290700 29008KT P6SM SKC
     FM291500 29011KT P6SM SCT040=



000
FTUS43 KLOT 281500 AAB
TAFGYY
TAF AMD
KGYY 281557Z 2816/2912 26017G27KT P6SM FEW030
     FM290000 26012KT P6SM FEW035
     FM290700 29008KT P6SM SKC=



000
FTUS43 KLOT 281500 AAB
TAFDPA
TAF AMD
KDPA 281557Z 2816/2912 26017G27KT P6SM SKC
     FM290000 26012KT P6SM FEW035
     FM290700 29008KT P6SM SKC=



000
FTUS43 KLOT 281500 AAB
TAFMDW
TAF AMD
KMDW 281557Z 2816/2912 26017G27KT P6SM FEW030
     FM290000 26012KT P6SM FEW035
     FM290700 29008KT P6SM SKC=



000
FTUS43 KLOT 281500 AAB
TAFMDW
TAF AMD
KMDW 281557Z 2816/2912 26017G27KT P6SM FEW030
     FM290000 26012KT P6SM FEW035
     FM290700 29008KT P6SM SKC=



000
FTUS43 KLOT 281500 AAB
TAFDPA
TAF AMD
KDPA 281557Z 2816/2912 26017G27KT P6SM SKC
     FM290000 26012KT P6SM FEW035
     FM290700 29008KT P6SM SKC=



000
FTUS43 KLOT 281500 AAB
TAFGYY
TAF AMD
KGYY 281557Z 2816/2912 26017G27KT P6SM FEW030
     FM290000 26012KT P6SM FEW035
     FM290700 29008KT P6SM SKC=



000
FTUS43 KLOT 281500 AAB
TAFRFD
TAF AMD
KRFD 281557Z 2816/2912 27017G27KT P6SM SCT030
     FM290000 26012KT P6SM SCT035
     FM290700 29008KT P6SM SKC=



000
FTUS43 KLOT 281500 AAB
TAFORD
TAF AMD
KORD 281557Z 2816/2918 26017G27KT P6SM FEW030
     FM290000 26012KT P6SM FEW035
     FM290700 29008KT P6SM SKC
     FM291500 29011KT P6SM SCT040=



000
FTUS43 KLOT 281300 AAA
TAFMDW
TAF AMD
KMDW 281352Z 2814/2912 27013G22KT P6SM BKN150
     FM281700 26017G27KT P6SM FEW060
     FM290000 26012KT P6SM FEW035
     FM290700 29008KT P6SM SKC=



000
FTUS43 KLOT 281300 AAA
TAFORD
TAF AMD
KORD 281352Z 2814/2918 27015G22KT P6SM SCT100 BKN150
     FM281700 26017G27KT P6SM FEW060
     FM290000 26012KT P6SM FEW035
     FM290700 29008KT P6SM SKC
     FM291500 29011KT P6SM SCT040=



000
FTUS43 KLOT 281300 AAA
TAFGYY
TAF AMD
KGYY 281352Z 2814/2912 27014G22KT P6SM BKN150
     FM281700 26017G27KT P6SM FEW060
     FM290000 26012KT P6SM FEW035
     FM290700 29008KT P6SM SKC=



000
FTUS43 KLOT 281300 AAA
TAFDPA
TAF AMD
KDPA 281352Z 2814/2912 27013G22KT P6SM BKN150
     FM281700 26017G27KT P6SM FEW060
     FM290000 26012KT P6SM FEW035
     FM290700 29008KT P6SM SKC=



000
FTUS43 KLOT 281300 AAA
TAFRFD
TAF AMD
KRFD 281352Z 2814/2912 27013G22KT P6SM SCT150
     FM281600 27017G27KT P6SM FEW060
     FM290000 26012KT P6SM SCT035
     FM290700 29008KT P6SM SKC=



    US Dept of Commerce
    National Oceanic and Atmospheric Administration
    National Weather Service
    1325 East West Highway
    Silver Spring, MD 20910
    Page Author: NWS Internet Services Team
Disclaimer
Information Quality
Credits
Glossary
Privacy Policy
Freedom of Information Act (FOIA)
About Us
Career Opportunities